createdAt,value
2022-11-25T00:04:41.825Z,41.99
2022-11-25T00:12:21.207Z,42.11
2022-11-25T00:19:59.316Z,41.99
2022-11-25T00:27:40.780Z,42.06
2022-11-25T00:35:18.237Z,42.06
2022-11-25T00:43:00.879Z,41.99
2022-11-25T00:50:34.629Z,41.83
2022-11-25T00:58:28.810Z,41.99
2022-11-25T01:06:07.227Z,41.96
2022-11-25T01:13:39.589Z,41.63
2022-11-25T01:21:27.319Z,41.72
2022-11-25T01:29:08.792Z,41.65
2022-11-25T01:36:43.449Z,41.66
2022-11-25T01:44:29.105Z,41.61
2022-11-25T01:52:16.891Z,41.48
2022-11-25T02:00:10.484Z,41.33
2022-11-25T02:07:50.437Z,41.47
2022-11-25T02:15:21.352Z,41.22
2022-11-25T02:23:15.416Z,41.18
2022-11-25T02:31:12.494Z,41.45
2022-11-25T02:38:59.168Z,41.43
2022-11-25T02:47:05.057Z,41.51
2022-11-25T02:54:42.073Z,41.57
2022-11-25T03:02:14.960Z,41.49
2022-11-25T03:09:52.470Z,41.55
2022-11-25T03:17:31.382Z,41.53
2022-11-25T03:25:15.843Z,41.54
2022-11-25T03:33:04.510Z,41.69
2022-11-25T03:40:36.555Z,41.65
2022-11-25T03:48:15.527Z,41.71
2022-11-25T03:55:46.880Z,41.68
2022-11-25T04:03:20.925Z,41.58
2022-11-25T04:10:53.472Z,41.57
2022-11-25T04:18:19.701Z,41.38
2022-11-25T04:25:46.614Z,41.41
2022-11-25T04:33:22.270Z,41.09
2022-11-25T04:40:03.046Z,40.5
2022-11-25T04:46:32.550Z,40.26
2022-11-25T04:53:01.117Z,39.73
2022-11-25T04:59:26.740Z,39.57
2022-11-25T05:05:58.626Z,39.81
2022-11-25T05:12:32.115Z,39.92
2022-11-25T05:19:13.085Z,39.72
2022-11-25T05:25:47.288Z,39.76
2022-11-25T05:32:14.092Z,39.55
2022-11-25T05:38:48.112Z,39.24
2022-11-25T05:45:14.553Z,39.51
2022-11-25T05:51:49.186Z,39.47
2022-11-25T05:58:12.137Z,39.64
2022-11-25T06:04:45.053Z,39.67
2022-11-25T06:11:14.751Z,39.72
2022-11-25T06:17:38.622Z,39.7
2022-11-25T06:24:06.697Z,39.53
2022-11-25T06:30:42.138Z,38.07
2022-11-25T06:37:21.077Z,37.45
2022-11-25T06:43:44.259Z,37.28
2022-11-25T06:50:17.121Z,36.94
2022-11-25T06:56:49.080Z,36.36
2022-11-25T07:03:21.305Z,36.38
2022-11-25T07:10:00.973Z,36.95
2022-11-25T07:16:44.574Z,37.06
2022-11-25T07:23:19.169Z,37.17
2022-11-25T07:30:29.492Z,37.45
2022-11-25T07:36:46.308Z,37.78
2022-11-25T07:43:19.215Z,38.1
2022-11-25T07:49:49.902Z,38.36
2022-11-25T07:56:24.688Z,38.25
2022-11-25T08:02:56.304Z,38.28
2022-11-25T08:09:37.902Z,37.85
2022-11-25T08:16:05.205Z,38.48
2022-11-25T08:22:38.305Z,38.49
2022-11-25T08:29:03.276Z,39.18
2022-11-25T08:35:35.368Z,39.34
2022-11-25T08:42:03.586Z,39.27
2022-11-25T08:48:28.178Z,39.27
2022-11-25T08:55:02.274Z,39.23
2022-11-25T09:01:30.535Z,39.29
2022-11-25T09:08:03.480Z,39.49
2022-11-25T09:14:33.545Z,39.04
2022-11-25T09:21:07.339Z,39.76
2022-11-25T09:27:36.306Z,39.81
2022-11-25T09:33:59.026Z,39.6
2022-11-25T09:40:35.279Z,40.22
2022-11-25T09:47:51.750Z,40.35
2022-11-25T09:55:06.382Z,40.75
2022-11-25T10:02:08.347Z,41.14
2022-11-25T10:09:05.419Z,41.26
2022-11-25T10:16:16.295Z,41.29
2022-11-25T10:23:13.610Z,41.07
2022-11-25T10:30:05.509Z,41.31
2022-11-25T10:37:06.250Z,41.55
2022-11-25T10:43:54.918Z,41.99
2022-11-25T10:50:47.438Z,41.95
2022-11-25T10:57:49.836Z,41.57
2022-11-25T11:04:47.865Z,41.59
2022-11-25T11:11:39.955Z,41.71
2022-11-25T11:19:11.074Z,42.09
2022-11-25T11:27:06.619Z,42.88
2022-11-25T11:35:02.866Z,43.03
2022-11-25T11:43:21.367Z,43.2
2022-11-25T11:51:27.378Z,43.08
2022-11-25T11:59:23.570Z,43.03
2022-11-25T12:07:21.150Z,43.09
2022-11-25T12:15:35.538Z,43.16
2022-11-25T12:24:02.148Z,43.19
2022-11-25T12:32:27.621Z,43.49
2022-11-25T12:40:42.558Z,44.1
2022-11-25T12:48:51.840Z,43.69
2022-11-25T12:57:04.725Z,43.91
2022-11-25T13:05:25.486Z,43.89
2022-11-25T13:13:33.192Z,44.08
2022-11-25T13:21:10.418Z,44.62
2022-11-25T13:29:11.948Z,44.55
2022-11-25T13:37:06.760Z,45.04
2022-11-25T13:45:04.024Z,45.12
2022-11-25T13:52:55.967Z,46.55
2022-11-25T14:00:47.690Z,46.34
2022-11-25T14:08:59.246Z,45.43
2022-11-25T14:16:50.943Z,44.95
2022-11-25T14:24:51.359Z,45.18
2022-11-25T14:32:42.443Z,45.14
2022-11-25T14:40:42.877Z,44.92
2022-11-25T14:48:37.232Z,44.87
2022-11-25T14:56:11.814Z,44.84
2022-11-25T15:03:56.072Z,44.82
2022-11-25T15:11:51.249Z,44.77
2022-11-25T15:19:43.517Z,44.8
2022-11-25T15:27:23.807Z,44.74
2022-11-25T15:35:05.259Z,44.69
2022-11-25T15:42:43.581Z,44.74
2022-11-25T15:50:19.746Z,44.79
2022-11-25T15:58:17.386Z,44.73
2022-11-25T16:05:52.796Z,44.83
2022-11-25T16:13:48.154Z,44.74
2022-11-25T16:21:37.838Z,44.52
2022-11-25T16:29:14.516Z,44.4
2022-11-25T16:36:55.056Z,44.38
2022-11-25T16:44:22.494Z,44.44
2022-11-25T16:51:57.462Z,44.42
2022-11-25T16:59:38.456Z,44.44
2022-11-25T17:07:31.476Z,44.28
2022-11-25T17:14:59.223Z,44.26
2022-11-25T17:22:39.990Z,44.25
2022-11-25T17:30:26.727Z,44.16
2022-11-25T17:37:48.012Z,44.23
2022-11-25T17:45:30.593Z,44.23
2022-11-25T17:52:51.949Z,44.22
2022-11-25T18:00:19.331Z,44.25
2022-11-25T18:07:54.092Z,44.39
2022-11-25T18:15:25.257Z,44.38
2022-11-25T18:23:01.283Z,44.33
2022-11-25T18:30:38.630Z,44.29
2022-11-25T18:38:06.712Z,44.17
2022-11-25T18:45:37.504Z,44.16
2022-11-25T18:53:02.918Z,44.16
2022-11-25T19:00:51.047Z,44.15
2022-11-25T19:08:32.882Z,44.15
2022-11-25T19:16:07.602Z,44.1
2022-11-25T19:23:53.426Z,44.06
2022-11-25T19:31:41.560Z,44.09
2022-11-25T19:39:19.687Z,44.06
2022-11-25T19:47:15.456Z,44.07
2022-11-25T19:55:00.311Z,44.02
2022-11-25T20:02:33.523Z,44.09
2022-11-25T20:10:20.285Z,44
2022-11-25T20:17:52.931Z,43.96
2022-11-25T20:25:41.510Z,44.07
2022-11-25T20:33:24.210Z,44.03
2022-11-25T20:41:01.197Z,43.88
2022-11-25T20:48:45.517Z,43.88
2022-11-25T20:56:13.546Z,43.81
2022-11-25T21:03:44.922Z,43.84
2022-11-25T21:11:32.240Z,43.73
2022-11-25T21:19:06.355Z,43.64
2022-11-25T21:26:55.327Z,43.73
2022-11-25T21:34:40.497Z,43.74
2022-11-25T21:42:34.799Z,43.66
2022-11-25T21:50:09.411Z,43.64
2022-11-25T21:57:40.140Z,43.65
2022-11-25T22:05:22.679Z,43.66
2022-11-25T22:13:05.051Z,43.69
2022-11-25T22:20:53.630Z,43.56
2022-11-25T22:28:41.425Z,43.78
2022-11-25T22:36:37.424Z,43.71
2022-11-25T22:44:13.513Z,43.71
2022-11-25T22:52:01.654Z,43.82
2022-11-25T22:59:35.388Z,43.76
2022-11-25T23:07:05.373Z,43.77
2022-11-25T23:14:42.487Z,43.74
2022-11-25T23:22:17.382Z,43.62
2022-11-25T23:29:47.181Z,43.47
2022-11-25T23:37:22.752Z,43.5
2022-11-25T23:45:05.520Z,43.33
2022-11-25T23:52:23.526Z,42.95
2022-11-25T23:59:08.508Z,42.37
